Time;durP1;ratioP1;P1;durP2;ratioP2;P2;SDS_P1;SDS_P2;PMS_P1;PMS_P2;Temp;Humidity;BMP_temperature;BMP_pressure;BME280_temperature;BME280_humidity;BME280_pressure;Samples;Min_cycle;Max_cycle;Signal;HPM_P1;HPM_P2
2022/08/04 00:01:50;;;;;;;7.53;2.20;;;;;;;19.57;70.64;101173.17;1681277;84;25673;-62
2022/08/04 00:04:38;;;;;;;3.47;2.00;;;;;;;19.51;70.92;101170.67;1681699;85;25795;-60
2022/08/04 00:07:40;;;;;;;7.58;1.98;;;;;;;19.51;70.97;101169.30;1680803;84;25987;-60
2022/08/04 00:10:08;;;;;;;6.83;2.05;;;;;;;19.54;71.06;101167.05;1675220;84;25706;-61
2022/08/04 00:12:43;;;;;;;4.50;2.40;;;;;;;19.58;71.14;101170.78;1675455;85;27619;-61
2022/08/04 00:15:15;;;;;;;10.00;1.90;;;;;;;19.61;71.19;101170.42;1675511;85;25816;-61
2022/08/04 00:17:51;;;;;;;9.63;2.17;;;;;;;19.59;70.76;101171.11;1675190;84;26480;-61
2022/08/04 00:20:20;;;;;;;5.45;2.00;;;;;;;19.59;70.82;101176.04;1676260;84;25826;-61
2022/08/04 00:22:48;;;;;;;5.70;2.12;;;;;;;19.59;70.84;101177.41;1675782;85;25780;-61
2022/08/04 00:25:16;;;;;;;4.22;2.40;;;;;;;19.61;70.85;101176.70;1669066;85;29639;-61
2022/08/04 00:27:42;;;;;;;9.15;2.50;;;;;;;19.61;71.14;101178.08;1665254;86;25947;-60
2022/08/04 00:30:10;;;;;;;4.10;1.80;;;;;;;19.62;70.83;101168.86;1665283;85;25771;-61
2022/08/04 00:32:41;;;;;;;3.27;1.82;;;;;;;19.62;71.16;101171.59;1665471;85;25982;-61
2022/08/04 00:35:12;;;;;;;10.82;2.67;;;;;;;19.61;70.83;101173.15;1665261;85;25954;-60
2022/08/04 00:37:43;;;;;;;5.47;2.15;;;;;;;19.57;70.67;101170.45;1665331;85;27607;-61
2022/08/04 00:40:37;;;;;;;4.92;2.25;;;;;;;19.53;70.84;101167.25;1664639;84;27262;-60
2022/08/04 00:43:31;;;;;;;6.17;2.10;;;;;;;19.51;70.74;101172.90;1665030;84;25567;-61
2022/08/04 00:46:33;;;;;;;6.62;2.15;;;;;;;19.52;70.90;101162.81;1666931;84;26797;-61
2022/08/04 00:49:14;;;;;;;7.15;2.35;;;;;;;19.50;71.16;101166.24;1669438;84;25687;-61
2022/08/04 00:52:03;;;;;;;4.20;2.20;;;;;;;19.47;70.91;101171.56;1668907;85;27623;-61
2022/08/04 00:54:56;;;;;;;6.08;1.92;;;;;;;19.47;71.29;101175.66;1669604;85;26169;-60
2022/08/04 00:57:58;;;;;;;12.05;2.33;;;;;;;19.42;71.21;101171.78;1661828;85;25813;-61
2022/08/04 01:00:25;;;;;;;4.87;2.52;;;;;;;19.32;71.06;101175.61;1669786;84;26024;-61
2022/08/04 01:03:09;;;;;;;8.50;1.98;;;;;;;19.33;71.24;101175.11;1669771;85;25814;-60
2022/08/04 01:06:07;;;;;;;3.30;2.10;;;;;;;19.33;71.35;101175.95;1662312;85;28305;-61
2022/08/04 01:08:54;;;;;;;5.37;2.30;;;;;;;19.33;71.52;101174.58;1656131;85;25777;-60
2022/08/04 01:11:36;;;;;;;8.70;2.00;;;;;;;19.35;71.51;101182.61;1670522;85;25830;-60
2022/08/04 01:14:23;;;;;;;3.33;1.70;;;;;;;19.36;71.65;101180.21;1680412;84;25824;-61
2022/08/04 01:16:57;;;;;;;8.10;2.42;;;;;;;19.35;71.54;101182.08;1681912;85;27325;-60
2022/08/04 01:20:04;;;;;;;7.42;2.60;;;;;;;19.35;71.60;101188.89;1681620;84;28147;-60
2022/08/04 01:22:36;;;;;;;7.45;2.45;;;;;;;19.33;71.65;101186.02;1686126;84;26502;-60
2022/08/04 01:25:39;;;;;;;8.77;2.60;;;;;;;19.29;71.43;101196.45;1676156;85;25767;-61
2022/08/04 01:28:23;;;;;;;8.88;3.60;;;;;;;19.30;71.46;101195.93;1675699;85;25940;-60
2022/08/04 01:30:55;;;;;;;5.92;2.37;;;;;;;19.31;71.63;101195.77;1675762;84;25549;-60
2022/08/04 01:33:25;;;;;;;6.72;2.47;;;;;;;19.31;71.58;101188.08;1676119;84;27522;-60
2022/08/04 01:35:56;;;;;;;6.80;2.42;;;;;;;19.26;71.49;101195.45;1675666;85;25793;-61
2022/08/04 01:38:31;;;;;;;3.25;1.90;;;;;;;19.27;71.82;101197.16;1676064;84;25702;-61
2022/08/04 01:41:02;;;;;;;3.22;2.10;;;;;;;19.28;71.80;101199.34;1675696;84;26753;-60
2022/08/04 01:43:35;;;;;;;9.85;2.62;;;;;;;19.21;71.48;101194.64;1675870;85;26156;-61
2022/08/04 01:46:05;;;;;;;7.58;3.08;;;;;;;19.22;71.68;101197.70;1656225;85;32465;-60
2022/08/04 01:48:37;;;;;;;12.73;2.62;;;;;;;19.25;71.76;101196.48;1675248;85;25741;-60
2022/08/04 01:51:07;;;;;;;9.08;2.42;;;;;;;19.27;71.61;101197.68;1675563;85;25524;-59
2022/08/04 01:53:37;;;;;;;3.83;2.92;;;;;;;19.15;71.27;101196.74;1675207;85;26400;-61
2022/08/04 01:56:08;;;;;;;3.05;2.30;;;;;;;19.12;72.22;101196.27;1675527;85;25793;-60
2022/08/04 01:58:37;;;;;;;3.77;2.35;;;;;;;19.08;72.70;101205.33;1675288;85;27542;-60
2022/08/04 02:01:08;;;;;;;13.22;2.70;;;;;;;19.07;72.76;101199.53;1675412;85;26182;-60
2022/08/04 02:03:39;;;;;;;16.02;2.95;;;;;;;19.03;72.44;101197.69;1675402;85;25813;-60
2022/08/04 02:06:41;;;;;;;3.85;2.37;;;;;;;19.07;72.53;101200.89;1675492;85;26450;-60
2022/08/04 02:09:31;;;;;;;4.25;2.37;;;;;;;19.12;72.71;101196.27;1673025;85;26196;-61
2022/08/04 02:12:20;;;;;;;3.70;2.50;;;;;;;19.16;72.70;101193.48;1671173;85;27479;-60
2022/08/04 02:15:05;;;;;;;7.60;2.65;;;;;;;19.16;72.57;101197.58;1671506;84;27242;-60
2022/08/04 02:17:46;;;;;;;11.28;2.47;;;;;;;19.13;72.65;101195.23;1671588;85;25754;-60
2022/08/04 02:20:26;;;;;;;6.05;2.37;;;;;;;19.14;72.90;101192.84;1672004;84;25753;-60
2022/08/04 02:23:00;;;;;;;7.50;2.90;;;;;;;19.14;72.93;101192.31;1672782;84;25710;-60
2022/08/04 02:25:35;;;;;;;5.50;2.90;;;;;;;19.16;73.12;101194.84;1678020;84;27564;-60
2022/08/04 02:28:19;;;;;;;6.65;2.15;;;;;;;19.18;73.60;101190.94;1678036;84;25706;-62
2022/08/04 02:31:03;;;;;;;7.65;2.58;;;;;;;19.19;73.35;101186.31;1679501;83;25709;-62
2022/08/04 02:33:37;;;;;;;7.85;2.75;;;;;;;19.26;73.51;101188.63;1678074;85;25820;-61
2022/08/04 02:36:16;;;;;;;7.33;2.70;;;;;;;19.30;73.39;101188.61;1678452;83;25753;-61
2022/08/04 02:38:54;;;;;;;7.65;2.30;;;;;;;19.29;73.53;101180.59;1678265;85;28156;-62
2022/08/04 02:41:24;;;;;;;11.80;2.62;;;;;;;19.25;73.75;101181.48;1678085;84;25848;-62
2022/08/04 02:44:03;;;;;;;4.85;2.20;;;;;;;19.22;73.61;101188.16;1678299;84;25815;-61
2022/08/04 02:46:33;;;;;;;6.53;2.85;;;;;;;19.22;73.83;101188.69;1674587;85;25822;-62
2022/08/04 02:49:07;;;;;;;6.80;2.45;;;;;;;19.18;73.72;101187.34;1672214;84;26378;-61
2022/08/04 02:51:38;;;;;;;8.38;2.55;;;;;;;19.22;73.95;101187.32;1671765;84;27471;-61
2022/08/04 02:54:07;;;;;;;6.92;2.40;;;;;;;19.26;73.92;101191.36;1671700;85;25687;-61
2022/08/04 02:56:37;;;;;;;6.22;2.25;;;;;;;19.31;74.03;101185.36;1672009;85;25841;-62
2022/08/04 02:59:10;;;;;;;6.67;2.25;;;;;;;19.33;73.87;101188.22;1620390;87;26306;-62
2022/08/04 03:01:39;;;;;;;4.70;3.08;;;;;;;19.35;73.77;101191.62;1620581;88;25749;-62
2022/08/04 03:04:33;;;;;;;5.62;2.67;;;;;;;19.39;73.73;101194.33;1665268;85;27485;-61
2022/08/04 03:07:38;;;;;;;6.47;3.10;;;;;;;19.44;73.66;101192.91;1667945;85;25845;-61
2022/08/04 03:10:46;;;;;;;12.23;3.08;;;;;;;19.46;73.52;101190.85;1665229;85;25688;-59
2022/08/04 03:13:47;;;;;;;11.48;2.95;;;;;;;19.49;73.71;101191.86;1660864;85;25820;-62
2022/08/04 03:16:22;;;;;;;10.08;2.83;;;;;;;19.45;73.08;101194.11;1660693;85;25786;-59
2022/08/04 03:19:13;;;;;;;18.48;8.43;;;;;;;19.42;72.96;101196.33;1659925;86;27707;-59
2022/08/04 03:21:51;;;;;;;5.40;2.70;;;;;;;19.39;73.17;101199.78;1660747;85;25716;-61
2022/08/04 03:25:07;;;;;;;8.03;3.25;;;;;;;19.34;73.13;101196.74;1651517;85;25833;-62
2022/08/04 03:28:02;;;;;;;11.80;3.62;;;;;;;19.34;73.37;101200.84;1646354;86;25833;-62
2022/08/04 03:31:03;;;;;;;7.67;3.55;;;;;;;19.41;73.24;101208.30;1650017;85;25670;-61
2022/08/04 03:34:04;;;;;;;15.53;2.90;;;;;;;19.42;73.12;101212.20;1650732;85;27651;-60
2022/08/04 03:37:08;;;;;;;12.03;3.25;;;;;;;19.45;72.96;101200.06;1648234;85;26123;-60
2022/08/04 03:39:59;;;;;;;11.85;3.33;;;;;;;19.52;72.94;101201.88;1649211;85;25521;-61
2022/08/04 03:42:48;;;;;;;10.78;3.10;;;;;;;19.62;72.85;101206.23;1649566;85;26395;-61
2022/08/04 03:45:55;;;;;;;5.03;2.70;;;;;;;19.70;72.80;101212.97;1647443;86;25791;-61
2022/08/04 03:48:33;;;;;;;10.95;3.40;;;;;;;19.79;72.94;101209.13;1661372;86;27512;-61
2022/08/04 03:55:00;;;;;;;10.38;2.98;;;;;;;19.92;72.79;101214.47;1660854;85;25803;-61
2022/08/04 03:57:47;;;;;;;7.47;3.30;;;;;;;20.03;72.54;101214.54;1660924;85;25909;-61
2022/08/04 04:00:41;;;;;;;9.25;3.30;;;;;;;20.08;72.26;101214.28;1660859;85;25785;-60
2022/08/04 04:03:40;;;;;;;9.95;3.00;;;;;;;20.12;72.02;101216.97;1660907;85;27481;-60
2022/08/04 04:06:40;;;;;;;19.10;3.47;;;;;;;20.13;71.55;101213.20;1633512;86;25735;-61
2022/08/04 04:09:21;;;;;;;13.93;3.67;;;;;;;20.14;71.23;101211.31;1660859;85;25754;-60
2022/08/04 04:12:30;;;;;;;13.83;3.35;;;;;;;20.15;71.15;101216.61;1660963;85;25828;-60
2022/08/04 04:15:11;;;;;;;4.28;2.77;;;;;;;20.17;71.03;101217.77;1660538;85;25725;-60
2022/08/04 04:17:53;;;;;;;15.48;3.83;;;;;;;20.20;70.95;101219.27;1662114;85;27831;-61
2022/08/04 04:20:46;;;;;;;11.43;2.75;;;;;;;20.17;70.86;101217.23;1660374;85;27230;-60
2022/08/04 04:23:55;;;;;;;6.20;3.02;;;;;;;20.19;70.86;101221.17;1659169;85;25774;-61
2022/08/04 04:27:05;;;;;;;7.60;2.55;;;;;;;20.25;70.88;101228.60;1638146;86;25798;-61
2022/08/04 04:30:07;;;;;;;12.60;3.60;;;;;;;20.27;70.52;101225.66;1646541;85;25770;-61
2022/08/04 04:33:06;;;;;;;9.25;2.95;;;;;;;20.24;70.46;101221.44;1645107;86;27497;-60
2022/08/04 04:35:59;;;;;;;12.73;2.70;;;;;;;20.21;70.58;101226.44;1647942;85;25692;-61
2022/08/04 04:38:50;;;;;;;8.17;3.07;;;;;;;20.23;70.53;101216.17;1650063;86;25826;-60
2022/08/04 04:41:36;;;;;;;13.93;3.35;;;;;;;20.25;70.64;101221.77;1649717;85;26675;-61
2022/08/04 04:44:30;;;;;;;14.47;3.62;;;;;;;20.29;70.51;101220.87;1650611;85;26121;-62
2022/08/04 04:47:32;;;;;;;9.28;2.85;;;;;;;20.37;70.52;101230.33;1664535;84;27514;-62
2022/08/04 04:50:28;;;;;;;7.35;3.50;;;;;;;20.43;70.41;101229.59;1659865;86;25781;-62
2022/08/04 04:53:21;;;;;;;12.18;2.47;;;;;;;20.49;70.27;101229.31;1660751;85;25837;-62
2022/08/04 04:55:53;;;;;;;19.65;3.12;;;;;;;20.58;70.09;101236.38;1660909;86;25972;-62
2022/08/04 04:58:22;;;;;;;8.73;2.70;;;;;;;20.63;69.76;101235.30;1660951;85;25794;-61
2022/08/04 05:01:03;;;;;;;6.22;2.77;;;;;;;20.68;69.46;101236.09;1660709;85;27507;-62
2022/08/04 05:03:50;;;;;;;10.98;2.52;;;;;;;20.72;69.23;101234.64;1663052;85;25765;-62
2022/08/04 05:06:50;;;;;;;13.30;2.27;;;;;;;20.75;69.01;101228.00;1607783;88;25740;-62
2022/08/04 05:09:43;;;;;;;5.55;2.65;;;;;;;20.76;68.71;101235.14;1607423;88;25848;-62
2022/08/04 05:12:24;;;;;;;9.00;2.60;;;;;;;20.74;68.50;101232.61;1608075;88;25776;-61
2022/08/04 05:14:54;;;;;;;4.28;2.45;;;;;;;20.77;68.75;101233.60;1603036;88;27530;-61
2022/08/04 05:17:29;;;;;;;8.55;2.65;;;;;;;20.88;68.71;101229.50;1658428;86;25834;-61
2022/08/04 05:20:13;;;;;;;5.00;2.37;;;;;;;21.00;68.27;101228.47;1661009;85;25754;-61
2022/08/04 05:22:43;;;;;;;;;;;;;;;21.02;67.47;101229.66;1662303;85;25790;-60
2022/08/04 05:25:33;;;;;;;19.35;4.95;;;;;;;21.05;67.27;101226.52;1642563;85;25978;-61
2022/08/04 05:28:11;;;;;;;8.98;3.40;;;;;;;21.06;67.38;101229.08;1650389;85;27504;-61
2022/08/04 05:30:48;;;;;;;7.87;2.62;;;;;;;21.08;67.26;101235.71;1645177;86;25759;-61
2022/08/04 05:33:30;;;;;;;13.00;3.10;;;;;;;21.09;67.22;101234.14;1646962;86;25771;-60
2022/08/04 05:36:01;;;;;;;4.50;2.15;;;;;;;21.14;67.15;101239.03;1650832;86;26539;-61
2022/08/04 05:38:42;;;;;;;8.45;2.65;;;;;;;21.22;66.96;101240.27;1650454;85;25802;-60
2022/08/04 05:41:10;;;;;;;8.33;2.90;;;;;;;21.34;66.85;101241.95;1650672;85;28271;-61
2022/08/04 05:43:40;;;;;;;11.48;2.77;;;;;;;21.49;66.84;101236.41;1650389;86;25842;-61
2022/08/04 05:46:10;;;;;;;10.98;3.42;;;;;;;21.60;66.82;101239.17;1650169;86;25644;-60
2022/08/04 05:48:39;;;;;;;7.17;3.10;;;;;;;21.70;66.79;101239.66;1658303;85;25980;-61
2022/08/04 05:51:09;;;;;;;13.35;3.27;;;;;;;21.75;66.77;101236.31;1643832;86;25833;-60
2022/08/04 05:53:38;;;;;;;6.65;2.80;;;;;;;21.76;66.38;101242.66;1661190;85;27536;-61
2022/08/04 05:56:07;;;;;;;8.90;3.20;;;;;;;21.76;66.23;101239.38;1657056;86;25828;-61
2022/08/04 05:58:35;;;;;;;12.33;3.30;;;;;;;21.79;66.31;101248.58;1660799;85;25795;-61
2022/08/04 06:01:03;;;;;;;10.10;2.95;;;;;;;21.83;66.33;101244.38;1660936;86;25875;-61
2022/08/04 06:03:31;;;;;;;4.97;2.92;;;;;;;21.91;66.42;101240.66;1660704;85;25827;-61
2022/08/04 06:05:59;;;;;;;9.63;3.12;;;;;;;21.97;66.52;101236.27;1661055;86;27535;-61
2022/08/04 06:08:28;;;;;;;8.23;2.65;;;;;;;22.03;66.35;101236.83;1660976;85;25735;-61
2022/08/04 06:10:58;;;;;;;13.80;2.52;;;;;;;22.10;66.02;101237.70;1660820;84;25731;-61
2022/08/04 06:13:33;;;;;;;10.45;2.72;;;;;;;22.20;65.38;101235.99;1660899;85;26436;-61
2022/08/04 06:16:02;;;;;;;7.28;3.17;;;;;;;22.33;64.66;101228.36;1656521;86;25777;-61
2022/08/04 06:18:32;;;;;;;9.45;3.10;;;;;;;22.43;64.57;101235.72;1660692;85;26921;-61
2022/08/04 06:21:02;;;;;;;9.78;3.25;;;;;;;22.56;64.71;101232.19;1660770;86;25804;-60
2022/08/04 06:23:31;;;;;;;5.72;2.12;;;;;;;22.71;63.23;101230.66;1649945;85;26574;-61
2022/08/04 06:26:00;;;;;;;3.62;2.40;;;;;;;22.79;63.40;101229.62;1646477;85;25756;-61
2022/08/04 06:28:30;;;;;;;15.70;2.40;;;;;;;22.90;63.58;101221.33;1650642;86;25807;-61
2022/08/04 06:31:02;;;;;;;5.85;2.50;;;;;;;22.96;63.18;101218.58;1650543;86;27490;-61
2022/08/04 06:33:33;;;;;;;12.73;2.87;;;;;;;23.06;62.29;101219.56;1646464;85;25759;-61
2022/08/04 06:36:05;;;;;;;;;;;;;;;23.13;62.20;101215.44;1650502;86;25818;-61
2022/08/04 06:38:35;;;;;;;10.23;2.90;;;;;;;23.22;62.17;101218.88;1648847;85;26183;-62
2022/08/04 06:41:08;;;;;;;21.25;3.25;;;;;;;23.28;62.32;101214.77;1649056;85;25818;-62
2022/08/04 06:43:33;;;;;;;11.38;3.20;;;;;;;23.36;62.08;101213.70;1650464;86;27488;-62
2022/08/04 06:46:03;;;;;;;4.90;2.62;;;;;;;23.41;62.24;101208.44;1654084;86;25847;-62
2022/08/04 06:48:32;;;;;;;12.80;3.00;;;;;;;23.40;61.77;101214.98;1661682;85;25728;-61
2022/08/04 06:51:00;;;;;;;16.10;3.12;;;;;;;23.37;61.53;101198.09;1660767;85;25807;-61
2022/08/04 06:53:28;;;;;;;8.10;2.75;;;;;;;23.35;61.83;101207.92;1656593;86;25836;-62
2022/08/04 06:55:57;;;;;;;11.33;2.95;;;;;;;23.40;61.62;101205.38;1659897;85;28279;-61
2022/08/04 06:58:25;;;;;;;9.20;2.70;;;;;;;23.45;61.63;101200.08;1660545;86;26125;-61
2022/08/04 07:00:54;;;;;;;4.75;2.40;;;;;;;23.51;61.35;101192.90;1660778;85;25750;-61
2022/08/04 07:03:22;;;;;;;7.30;2.12;;;;;;;23.59;61.23;101187.19;1660843;86;25785;-62
2022/08/04 07:05:52;;;;;;;4.58;2.12;;;;;;;23.66;61.16;101191.30;1660775;85;25671;-61
2022/08/04 07:08:20;;;;;;;4.30;2.37;;;;;;;23.72;60.69;101185.48;1660634;86;27458;-62
2022/08/04 07:10:48;;;;;;;7.80;2.35;;;;;;;23.76;60.60;101186.73;1661411;85;25719;-61
2022/08/04 07:13:16;;;;;;;7.37;2.40;;;;;;;23.85;60.89;101185.45;1660697;86;25754;-61
2022/08/04 07:15:48;;;;;;;14.28;2.12;;;;;;;23.96;60.09;101185.88;1660918;85;25811;-61
2022/08/04 07:18:15;;;;;;;10.15;2.72;;;;;;;24.06;59.90;101180.78;1660846;86;26134;-61
2022/08/04 07:20:45;;;;;;;8.50;2.60;;;;;;;24.22;58.84;101173.43;1660912;85;27493;-62
2022/08/04 07:23:16;;;;;;;8.13;2.27;;;;;;;24.40;57.75;101178.74;1655459;85;25778;-62
2022/08/04 07:25:43;;;;;;;8.75;2.58;;;;;;;24.47;57.93;101181.47;1647100;85;25751;-62
2022/08/04 07:28:10;;;;;;;6.22;2.37;;;;;;;24.49;57.57;101177.98;1647530;85;26579;-61
2022/08/04 07:30:40;;;;;;;7.20;2.67;;;;;;;24.54;57.38;101185.02;1649576;86;25528;-62
2022/08/04 07:33:08;;;;;;;3.50;2.95;;;;;;;24.61;57.27;101175.38;1648999;85;27613;-62
2022/08/04 07:35:37;;;;;;;4.22;2.62;;;;;;;24.62;56.41;101175.14;1650513;86;25779;-61
2022/08/04 07:38:04;;;;;;;9.50;2.77;;;;;;;24.57;56.56;101176.34;1650500;86;25779;-61
2022/08/04 07:40:33;;;;;;;5.28;2.33;;;;;;;24.53;56.49;101178.70;1650512;85;25826;-62
2022/08/04 07:43:00;;;;;;;30.80;3.77;;;;;;;24.55;56.91;101178.47;1647540;86;25750;-62
2022/08/04 07:45:26;;;;;;;13.70;3.15;;;;;;;24.66;57.45;101163.16;1651538;86;27495;-62
2022/08/04 07:47:54;;;;;;;10.05;3.52;;;;;;;24.77;57.06;101166.63;1660801;85;25826;-62
2022/08/04 07:50:22;;;;;;;6.47;3.37;;;;;;;24.85;56.70;101165.53;1660719;85;25553;-62
2022/08/04 07:52:50;;;;;;;11.38;2.70;;;;;;;24.95;56.85;101164.51;1660857;85;26819;-61
2022/08/04 07:55:18;;;;;;;8.65;2.40;;;;;;;24.98;56.30;101161.29;1660685;86;25840;-62
2022/08/04 07:57:45;;;;;;;9.10;2.83;;;;;;;25.08;56.24;101158.06;1661067;85;27616;-62
2022/08/04 08:00:14;;;;;;;9.43;4.22;;;;;;;25.16;55.02;101162.42;1660823;85;25509;-62
2022/08/04 08:02:50;;;;;;;5.78;2.47;;;;;;;25.24;54.78;101154.43;1660809;85;25840;-62
2022/08/04 08:05:20;;;;;;;11.03;2.37;;;;;;;25.34;54.61;101162.17;1660452;85;25840;-62
2022/08/04 08:07:51;;;;;;;9.93;2.80;;;;;;;25.37;54.19;101166.69;1660856;85;25675;-62
2022/08/04 08:10:19;;;;;;;5.92;1.95;;;;;;;25.45;53.72;101161.47;1660771;85;27635;-61
2022/08/04 08:12:47;;;;;;;10.25;2.72;;;;;;;25.44;53.65;101154.28;1670982;85;25754;-61
2022/08/04 08:15:15;;;;;;;5.35;2.12;;;;;;;25.38;52.74;101165.63;1672011;85;25766;-62
2022/08/04 08:17:41;;;;;;;10.43;2.92;;;;;;;25.35;53.09;101168.85;1671914;84;25794;-62
2022/08/04 08:20:10;;;;;;;15.10;2.42;;;;;;;25.34;53.54;101167.67;1671794;84;25756;-62
2022/08/04 08:22:38;;;;;;;9.05;2.20;;;;;;;25.46;53.41;101161.78;1671553;85;27424;-62
2022/08/04 08:25:07;;;;;;;7.42;2.20;;;;;;;25.59;52.79;101156.16;1667838;85;25827;-62
2022/08/04 08:27:36;;;;;;;3.75;2.05;;;;;;;25.75;52.58;101160.77;1667146;86;25771;-62
2022/08/04 08:30:05;;;;;;;8.88;2.52;;;;;;;25.86;52.09;101169.66;1667468;85;25833;-62
2022/08/04 08:32:32;;;;;;;9.78;2.17;;;;;;;25.90;52.00;101162.60;1667304;84;25759;-62
2022/08/04 08:34:59;;;;;;;7.65;2.10;;;;;;;26.15;51.86;101163.63;1667408;85;28468;-62
2022/08/04 08:37:40;;;;;;;7.00;2.10;;;;;;;26.38;51.03;101160.98;1666981;85;26596;-62
2022/08/04 08:40:19;;;;;;;11.22;2.62;;;;;;;26.57;51.00;101163.70;1659258;85;26046;-62
2022/08/04 08:43:12;;;;;;;8.75;2.77;;;;;;;26.84;50.71;101160.59;1665051;84;25882;-62
2022/08/04 08:46:16;;;;;;;4.47;2.15;;;;;;;27.13;48.76;101164.36;1614151;86;25763;-62
2022/08/04 08:49:03;;;;;;;8.78;2.30;;;;;;;27.25;48.89;101170.45;1647071;86;27513;-62
2022/08/04 08:51:52;;;;;;;10.65;2.58;;;;;;;27.31;48.73;101163.97;1665184;85;25806;-62
2022/08/04 08:54:45;;;;;;;6.42;2.85;;;;;;;27.45;49.21;101159.94;1671897;85;25839;-62
2022/08/04 08:57:26;;;;;;;4.65;2.08;;;;;;;27.69;48.66;101166.83;1672090;84;26006;-62
2022/08/04 09:00:15;;;;;;;6.17;2.15;;;;;;;27.81;48.55;101158.52;1659507;83;25813;-62
2022/08/04 09:02:56;;;;;;;3.20;2.17;;;;;;;28.05;47.55;101158.49;1677551;84;27495;-62
2022/08/04 09:05:44;;;;;;;25.35;2.52;;;;;;;28.28;46.50;101154.85;1677448;84;25693;-62
2022/08/04 09:08:39;;;;;;;5.03;2.25;;;;;;;28.30;45.81;101159.58;1676302;83;25762;-62
2022/08/04 09:11:11;;;;;;;10.70;2.42;;;;;;;28.38;45.43;101152.27;1671616;85;25858;-62
2022/08/04 09:13:59;;;;;;;5.55;1.85;;;;;;;28.47;45.94;101155.49;1670844;85;25765;-62
2022/08/04 09:16:53;;;;;;;7.12;2.12;;;;;;;28.47;46.01;101157.40;1671556;84;28567;-62
2022/08/04 09:19:39;;;;;;;5.58;2.10;;;;;;;28.49;45.72;101149.70;1658943;85;25840;-62
2022/08/04 09:22:51;;;;;;;7.25;2.15;;;;;;;28.53;44.79;101147.58;1671655;85;25845;-62
2022/08/04 09:25:29;;;;;;;2.00;1.75;;;;;;;28.60;45.00;101147.98;1627909;85;25830;-62
2022/08/04 09:28:04;;;;;;;3.55;1.70;;;;;;;28.73;44.94;101142.16;1627239;87;25738;-62
2022/08/04 09:30:51;;;;;;;7.53;2.42;;;;;;;29.09;44.03;101145.55;1627416;87;27514;-62
2022/08/04 09:33:45;;;;;;;6.95;1.85;;;;;;;29.35;43.86;101141.30;1627140;86;25742;-62
2022/08/04 09:36:30;;;;;;;6.40;2.02;;;;;;;29.81;42.86;101146.66;1608090;87;25757;-62
2022/08/04 09:39:17;;;;;;;4.08;2.15;;;;;;;30.09;42.08;101145.36;1572725;88;25954;-62
2022/08/04 09:42:04;;;;;;;3.15;1.80;;;;;;;30.42;39.97;101143.53;1594739;88;25780;-61
2022/08/04 09:45:08;;;;;;;3.77;1.70;;;;;;;30.84;39.54;101133.71;1575693;88;27504;-61
2022/08/04 09:47:52;;;;;;;3.25;1.77;;;;;;;30.70;38.57;101137.47;1590845;89;25900;-62
2022/08/04 09:50:40;;;;;;;7.30;1.98;;;;;;;30.15;39.84;101137.41;1589885;88;25811;-62
2022/08/04 09:53:36;;;;;;;5.47;1.70;;;;;;;30.27;40.80;101133.92;1590494;88;25804;-62
2022/08/04 09:56:11;;;;;;;8.93;2.05;;;;;;;30.29;40.26;101135.89;1581574;88;25507;-62
2022/08/04 09:59:09;;;;;;;3.58;2.05;;;;;;;30.20;39.93;101126.36;1604123;87;27672;-62
2022/08/04 10:01:37;;;;;;;6.70;1.95;;;;;;;30.02;40.58;101130.84;1591861;87;25880;-61
2022/08/04 10:04:08;;;;;;;5.87;1.87;;;;;;;29.45;41.58;101137.00;1587786;89;25811;-61
2022/08/04 10:07:15;;;;;;;5.28;1.87;;;;;;;29.15;42.63;101139.55;1569866;88;25880;-61
2022/08/04 10:10:27;;;;;;;8.25;1.90;;;;;;;29.36;42.71;101135.20;1555429;91;25577;-63
2022/08/04 10:13:20;;;;;;;3.45;2.08;;;;;;;30.15;41.71;101130.47;1595122;87;27561;-62
2022/08/04 10:16:18;;;;;;;8.85;1.87;;;;;;;30.11;41.36;101127.91;1569446;88;33026;-62
2022/08/04 10:19:08;;;;;;;6.45;2.45;;;;;;;29.87;41.17;101123.99;1619666;88;25816;-61
2022/08/04 10:22:02;;;;;;;7.62;2.22;;;;;;;29.73;41.58;101130.46;1618936;87;25984;-61
2022/08/04 10:24:49;;;;;;;8.58;1.60;;;;;;;30.73;39.88;101134.14;1632973;87;25745;-62
2022/08/04 10:27:33;;;;;;;5.85;1.70;;;;;;;32.05;40.02;101124.77;1639934;87;29713;-62
2022/08/04 10:30:12;;;;;;;3.35;2.02;;;;;;;32.31;35.84;101117.38;1640132;87;25750;-62
2022/08/04 10:33:06;;;;;;;17.25;2.08;;;;;;;32.49;36.42;101111.58;1640316;86;25802;-61
2022/08/04 10:35:38;;;;;;;9.23;1.67;;;;;;;33.35;34.60;101111.33;1629957;84;25810;-61
2022/08/04 10:38:36;;;;;;;4.95;1.77;;;;;;;33.16;33.78;101107.42;1618920;86;25856;-62
2022/08/04 10:41:17;;;;;;;8.05;1.87;;;;;;;32.72;34.26;101105.46;1638876;87;27662;-63
2022/08/04 10:44:23;;;;;;;2.67;1.45;;;;;;;32.10;35.64;101116.99;1645180;86;25976;-62
2022/08/04 10:46:57;;;;;;;6.42;1.45;;;;;;;31.96;35.73;101113.91;1641967;87;25802;-63
2022/08/04 10:49:48;;;;;;;3.37;1.82;;;;;;;32.89;34.93;101114.98;1640093;86;25849;-63
2022/08/04 10:52:33;;;;;;;4.60;1.50;;;;;;;32.87;34.53;101109.39;1639776;87;25803;-63
2022/08/04 10:55:11;;;;;;;6.87;1.60;;;;;;;33.15;34.95;101108.53;1640404;86;27546;-63
2022/08/04 10:57:44;;;;;;;3.72;1.60;;;;;;;33.38;34.51;101102.41;1640054;87;25791;-63
2022/08/04 11:00:22;;;;;;;9.88;1.65;;;;;;;33.06;34.25;101107.70;1640157;87;25758;-63
2022/08/04 11:03:10;;;;;;;2.22;1.50;;;;;;;32.79;33.96;101112.19;1637410;87;25862;-60
2022/08/04 11:05:56;;;;;;;8.78;1.95;;;;;;;32.47;34.42;101111.83;1645810;85;25850;-62
2022/08/04 11:08:30;;;;;;;20.90;2.27;;;;;;;32.15;34.79;101099.77;1642548;87;27446;-62
2022/08/04 11:11:08;;;;;;;14.93;1.80;;;;;;;31.93;35.32;101109.70;1646905;85;25822;-62
2022/08/04 11:13:52;;;;;;;9.28;1.60;;;;;;;31.69;35.51;101111.56;1644786;86;25870;-62
2022/08/04 11:16:30;;;;;;;9.38;1.72;;;;;;;31.49;36.10;101118.36;1617281;88;25834;-62
2022/08/04 11:19:24;;;;;;;4.20;1.92;;;;;;;31.43;36.40;101114.70;1618235;88;26577;-63
2022/08/04 11:22:04;;;;;;;6.58;1.75;;;;;;;31.44;36.07;101116.38;1566329;91;28181;-62
2022/08/04 11:24:48;;;;;;;6.65;2.05;;;;;;;31.34;36.34;101117.17;1632725;87;25877;-62
2022/08/04 11:27:21;;;;;;;9.78;2.30;;;;;;;31.41;36.60;101107.21;1640091;86;25823;-62
2022/08/04 11:30:12;;;;;;;6.85;1.70;;;;;;;31.46;36.70;101113.36;1640056;87;32995;-62
2022/08/04 11:33:20;;;;;;;4.12;1.60;;;;;;;31.36;35.72;101105.23;1640171;87;25799;-62
2022/08/04 11:35:53;;;;;;;14.35;2.70;;;;;;;31.99;35.42;101097.51;1640083;86;27542;-62
2022/08/04 11:38:45;;;;;;;3.50;1.98;;;;;;;33.18;34.63;101091.25;1639967;87;25975;-62
2022/08/04 11:41:19;;;;;;;8.00;1.95;;;;;;;33.21;34.11;101087.92;1639979;87;25869;-62
2022/08/04 11:43:57;;;;;;;6.53;2.20;;;;;;;32.99;34.07;101093.23;1640109;87;25792;-62
2022/08/04 11:46:43;;;;;;;3.52;1.57;;;;;;;33.03;34.28;101092.96;1640554;86;26142;-63
2022/08/04 11:49:27;;;;;;;5.55;2.10;;;;;;;33.33;34.18;101093.22;1640097;87;28016;-62
2022/08/04 11:51:59;;;;;;;5.28;1.70;;;;;;;33.02;34.63;101092.68;1640080;87;25821;-63
2022/08/04 11:54:26;;;;;;;3.12;1.80;;;;;;;32.55;34.31;101093.75;1640033;87;25847;-63
2022/08/04 11:56:55;;;;;;;8.45;2.02;;;;;;;31.87;35.29;101098.86;1626577;86;25856;-63
2022/08/04 11:59:24;;;;;;;8.13;2.17;;;;;;;31.45;36.32;101100.56;1642543;87;25845;-60
2022/08/04 12:02:14;;;;;;;6.17;2.15;;;;;;;31.02;37.41;101099.13;1646220;86;27466;-63
2022/08/04 12:05:04;;;;;;;8.35;2.25;;;;;;;30.62;38.06;101102.68;1638716;87;25954;-62
2022/08/04 12:07:57;;;;;;;5.95;2.00;;;;;;;30.38;38.31;101091.88;1626340;87;25844;-62
2022/08/04 12:11:21;;;;;;;9.15;3.10;;;;;;;30.16;38.31;101097.47;1639769;87;25811;-63
2022/08/04 12:14:00;;;;;;;;;;;;;;;30.16;38.91;101097.47;1646566;87;25744;-62
2022/08/04 12:16:49;;;;;;;5.72;2.05;;;;;;;31.79;38.21;101090.47;1636337;87;27576;-62
2022/08/04 12:19:33;;;;;;;2.47;1.70;;;;;;;32.98;36.39;101087.95;1646484;86;26159;-62
2022/08/04 12:22:26;;;;;;;3.25;1.85;;;;;;;33.09;35.24;101084.02;1639004;86;26395;-63
2022/08/04 12:25:07;;;;;;;4.30;1.82;;;;;;;34.25;34.24;101077.20;1663222;85;25847;-62
2022/08/04 12:27:51;;;;;;;3.80;1.65;;;;;;;34.17;33.58;101075.30;1665344;86;25764;-63
2022/08/04 12:30:19;;;;;;;23.98;4.22;;;;;;;33.73;32.88;101073.27;1665267;86;27485;-63